Terminal Aerodrome Forecast
Issued by NWS

Home | Current Version | Previous Version | Text Only | Print | Product List | Glossary On
Versions: 1 2 3 4 5 6 7 8 9 10 11 12 13 14 15 16 17 18 19 20 21 22 23 24 25 26 27 28 29 30 31 32 33 34 35 36 37 38 39 40 41
000
FTUS42 KJAX 261100
TAFVQQ
TAF
KVQQ 261121Z 2612/2712 31012G20KT 5SM -RA BR SCT001 OVC007
      TEMPO 2612/2614 2SM -RA BR OVC001
     FM261500 31010G18KT P6SM VCSH SCT005 BKN015
     FM261900 29010KT P6SM SCT025 SCT250
     FM262300 27003KT P6SM SKC=

USA.gov is the U.S. government's official web portal to all federal, state and local government web resources and services.